createdAt,value
2023-04-24T10:35:45.265Z,18.11
2023-04-24T10:38:31.683Z,18.05
2023-04-24T10:41:23.871Z,17.90
2023-04-24T10:44:11.272Z,17.72
2023-04-24T10:46:57.237Z,17.68
2023-04-24T10:49:43.683Z,17.76
2023-04-24T10:52:45.882Z,17.93
2023-04-24T10:55:44.396Z,18.02
2023-04-24T10:58:55.051Z,18.21
2023-04-24T11:01:40.297Z,18.24
2023-04-24T11:04:33.455Z,18.50
2023-04-24T11:07:18.522Z,18.57
2023-04-24T11:10:04.564Z,18.50
2023-04-24T11:12:52.006Z,18.52
2023-04-24T11:15:37.880Z,18.74
2023-04-24T11:18:23.875Z,18.98
2023-04-24T11:21:18.540Z,19.10
2023-04-24T11:24:33.032Z,19.11
2023-04-24T11:27:21.248Z,18.71
2023-04-24T11:30:07.532Z,18.42
2023-04-24T11:32:53.260Z,18.29
2023-04-24T11:35:41.709Z,18.00
2023-04-24T11:38:27.000Z,17.79
2023-04-24T11:41:12.609Z,17.64
2023-04-24T11:43:58.403Z,17.53
2023-04-24T11:46:43.917Z,17.73
2023-04-24T11:49:29.362Z,17.90
2023-04-24T11:52:16.914Z,17.95
2023-04-24T11:55:02.615Z,17.94
2023-04-24T11:57:54.760Z,17.91
2023-04-24T12:00:40.579Z,18.13
2023-04-24T12:03:26.256Z,18.46
2023-04-24T12:06:12.801Z,18.66
2023-04-24T12:09:04.714Z,18.55
2023-04-24T12:12:00.811Z,18.16
2023-04-24T12:14:50.945Z,17.69
2023-04-24T12:17:37.723Z,17.66
2023-04-24T12:20:31.874Z,17.59
2023-04-24T12:23:18.597Z,17.76
2023-04-24T12:26:07.192Z,17.82
2023-04-24T12:28:52.309Z,17.90
2023-04-24T12:31:37.814Z,18.03
2023-04-24T12:34:25.779Z,18.15
2023-04-24T12:37:12.364Z,18.21
2023-04-24T12:40:08.265Z,18.34
2023-04-24T12:42:54.395Z,18.51
2023-04-24T12:45:40.863Z,18.38
2023-04-24T12:48:29.789Z,18.57
2023-04-24T12:51:15.035Z,18.83
2023-04-24T12:54:00.163Z,18.93
2023-04-24T12:56:45.439Z,19.01
2023-04-24T12:59:30.875Z,19.01
2023-04-24T13:02:19.605Z,19.08
2023-04-24T13:05:05.255Z,19.05
2023-04-24T13:07:51.035Z,19.05
2023-04-24T13:10:36.403Z,19.09
2023-04-24T13:13:21.615Z,19.32
2023-04-24T13:16:07.053Z,19.49
2023-04-24T13:18:52.179Z,19.58
2023-04-24T13:21:37.243Z,19.27
2023-04-24T13:24:26.950Z,19.00
2023-04-24T13:27:12.252Z,18.90
2023-04-24T13:29:57.309Z,18.98
2023-04-24T13:32:42.952Z,19.04
2023-04-24T13:35:28.254Z,19.18
2023-04-24T13:38:13.399Z,18.88
2023-04-24T13:40:58.863Z,18.74
2023-04-24T13:43:44.609Z,18.99
2023-04-24T13:46:30.713Z,19.11
2023-04-24T13:49:16.733Z,19.17
2023-04-24T13:52:03.150Z,19.30
2023-04-24T13:54:48.994Z,19.24
2023-04-24T13:57:34.309Z,19.09
2023-04-24T14:00:20.129Z,18.95
2023-04-24T14:03:05.298Z,18.82
2023-04-24T14:05:50.911Z,18.84
2023-04-24T14:08:36.051Z,18.98
2023-04-24T14:11:21.628Z,18.80
2023-04-24T14:14:06.782Z,18.68
2023-04-24T14:16:51.949Z,18.63
2023-04-24T14:19:37.202Z,18.58
2023-04-24T14:22:22.692Z,18.60
2023-04-24T14:25:08.656Z,18.53
2023-04-24T14:27:53.851Z,18.37
2023-04-24T14:30:41.532Z,18.46
2023-04-24T14:33:26.978Z,18.64
2023-04-24T14:36:12.037Z,18.49
2023-04-24T14:38:57.304Z,18.31
2023-04-24T14:41:42.524Z,18.21
2023-04-24T14:44:28.173Z,18.13
2023-04-24T14:47:13.527Z,18.10
2023-04-24T14:49:59.355Z,18.04
2023-04-24T14:52:44.730Z,18.01
2023-04-24T14:55:30.092Z,18.01
2023-04-24T14:58:15.442Z,18.04
2023-04-24T15:01:00.941Z,18.14
2023-04-24T15:03:47.031Z,18.25
2023-04-24T15:06:32.840Z,18.28
2023-04-24T15:09:18.074Z,18.40
2023-04-24T15:12:03.613Z,18.51
2023-04-24T15:14:48.945Z,18.40
2023-04-24T15:17:34.607Z,18.25
2023-04-24T15:20:20.149Z,18.26
2023-04-24T15:23:14.149Z,18.28
2023-04-24T15:25:59.545Z,18.17
2023-04-24T15:28:45.111Z,18.08
2023-04-24T15:31:30.337Z,17.74
2023-04-24T15:34:15.668Z,17.60
2023-04-24T15:37:01.511Z,17.33
2023-04-24T15:39:47.176Z,17.23
2023-04-24T15:42:32.564Z,17.18
2023-04-24T15:45:17.837Z,17.12
2023-04-24T15:48:03.082Z,17.11
2023-04-24T15:50:48.709Z,17.12
2023-04-24T15:53:34.231Z,17.09
2023-04-24T15:56:20.097Z,17.02
2023-04-24T15:59:06.527Z,16.91
2023-04-24T16:01:52.139Z,16.79
2023-04-24T16:04:37.854Z,16.75
2023-04-24T16:07:23.515Z,16.69
2023-04-24T16:10:09.484Z,16.74
2023-04-24T16:12:54.984Z,16.78
2023-04-24T16:15:40.258Z,16.79
2023-04-24T16:18:25.382Z,16.84
2023-04-24T16:21:10.795Z,16.92
2023-04-24T16:23:55.979Z,16.89
2023-04-24T16:26:41.328Z,16.97
2023-04-24T16:29:26.669Z,16.93
2023-04-24T16:32:11.886Z,16.78
2023-04-24T16:34:57.142Z,16.65
2023-04-24T16:37:42.556Z,16.47
2023-04-24T16:40:27.648Z,16.35
2023-04-24T16:43:13.023Z,16.17
2023-04-24T16:46:00.576Z,15.92
2023-04-24T16:48:46.265Z,15.82
2023-04-24T16:51:33.023Z,15.71
2023-04-24T16:54:18.206Z,15.57
2023-04-24T16:57:04.668Z,15.48
2023-04-24T16:59:49.860Z,15.37
2023-04-24T17:02:35.006Z,15.21
2023-04-24T17:05:23.353Z,15.13
2023-04-24T17:08:09.077Z,15.02
2023-04-24T17:10:54.419Z,14.97
2023-04-24T17:13:39.907Z,14.94
2023-04-24T17:16:25.837Z,14.87
2023-04-24T17:19:11.545Z,14.78
2023-04-24T17:21:57.975Z,14.66
2023-04-24T17:24:43.431Z,14.52
2023-04-24T17:27:28.789Z,14.39
2023-04-24T17:30:14.753Z,14.34
2023-04-24T17:33:00.030Z,14.21
2023-04-24T17:35:45.458Z,14.17
2023-04-24T17:38:30.879Z,14.10
2023-04-24T17:41:16.760Z,13.95
2023-04-24T17:44:02.303Z,13.77
2023-04-24T17:46:47.784Z,13.60
2023-04-24T17:49:33.013Z,13.46
2023-04-24T17:52:18.234Z,13.49
2023-04-24T17:55:03.847Z,13.41
2023-04-24T17:57:49.389Z,13.37
2023-04-24T18:00:35.418Z,13.40
2023-04-24T18:03:20.839Z,13.45
2023-04-24T18:06:06.253Z,13.48
2023-04-24T18:08:51.562Z,13.46
2023-04-24T18:11:37.697Z,13.45
2023-04-24T18:14:23.349Z,13.34
2023-04-24T18:17:09.708Z,13.15
2023-04-24T18:19:55.292Z,12.97
2023-04-24T18:22:41.537Z,12.92
2023-04-24T18:25:27.320Z,12.76
2023-04-24T18:28:12.713Z,12.66
2023-04-24T18:30:58.482Z,12.62
2023-04-24T18:33:43.788Z,12.51
2023-04-24T18:36:29.027Z,12.41
2023-04-24T18:39:14.412Z,12.36
2023-04-24T18:42:01.748Z,12.25
2023-04-24T18:44:46.905Z,12.15
2023-04-24T18:47:32.286Z,12.13
2023-04-24T18:50:19.207Z,12.04
2023-04-24T18:53:04.456Z,11.89
2023-04-24T18:55:49.955Z,11.77
2023-04-24T18:58:35.268Z,11.76
2023-04-24T19:01:21.983Z,11.77
2023-04-24T19:04:07.318Z,11.66
2023-04-24T19:06:52.554Z,11.55
2023-04-24T19:09:37.825Z,11.45
2023-04-24T19:12:23.314Z,11.38
2023-04-24T19:15:12.737Z,11.37
2023-04-24T19:17:57.726Z,11.43
2023-04-24T19:20:43.977Z,11.45
2023-04-24T19:23:29.602Z,11.39
2023-04-24T19:26:14.615Z,11.36
2023-04-24T19:29:00.041Z,11.27
2023-04-24T19:31:45.503Z,11.27
2023-04-24T19:34:31.910Z,11.27
2023-04-24T19:37:17.344Z,11.28
2023-04-24T19:40:03.530Z,11.32
2023-04-24T19:42:49.558Z,11.35
2023-04-24T19:45:34.604Z,11.39
2023-04-24T19:48:19.970Z,11.43
2023-04-24T19:51:05.465Z,11.41
2023-04-24T19:53:53.963Z,11.38
2023-04-24T19:56:39.230Z,11.39
2023-04-24T19:59:24.742Z,11.22
2023-04-24T20:02:11.539Z,11.03
2023-04-24T20:04:57.069Z,10.92
2023-04-24T20:07:42.350Z,10.86
2023-04-24T20:10:27.723Z,10.80
2023-04-24T20:13:13.027Z,10.76
2023-04-24T20:15:58.312Z,10.68
2023-04-24T20:18:44.591Z,10.55
2023-04-24T20:21:29.661Z,10.53
2023-04-24T20:24:16.126Z,10.54
2023-04-24T20:27:04.447Z,10.47
2023-04-24T20:29:49.819Z,10.51
2023-04-24T20:32:35.524Z,10.49
2023-04-24T20:35:20.868Z,10.57
2023-04-24T20:38:06.671Z,10.58
2023-04-24T20:43:40.330Z,10.55
2023-04-24T20:46:25.602Z,10.56
2023-04-24T20:49:11.017Z,10.56
2023-04-24T20:51:56.378Z,10.50
2023-04-24T20:54:41.857Z,10.40
2023-04-24T20:57:27.417Z,10.36
2023-04-24T21:00:13.610Z,10.39
2023-04-24T21:02:58.897Z,10.39
2023-04-24T21:05:44.310Z,10.38
2023-04-24T21:08:29.764Z,10.40
2023-04-24T21:11:15.205Z,10.39
2023-04-24T21:14:00.704Z,10.38
2023-04-24T21:16:45.998Z,10.33
2023-04-24T21:19:31.303Z,10.36
2023-04-24T21:22:16.606Z,10.34
2023-04-24T21:25:05.555Z,10.34
2023-04-24T21:27:50.962Z,10.36
2023-04-24T21:30:37.437Z,10.33
2023-04-24T21:33:22.867Z,10.36
2023-04-24T21:36:08.080Z,10.42
2023-04-24T21:38:53.219Z,10.43
2023-04-24T21:41:38.788Z,10.43
2023-04-24T21:44:24.667Z,10.41
2023-04-24T21:47:10.161Z,10.40
2023-04-24T21:49:55.508Z,10.39
2023-04-24T21:52:40.783Z,10.37
2023-04-24T21:55:26.964Z,10.34
2023-04-24T21:58:12.843Z,10.32
2023-04-24T22:00:58.142Z,10.25
2023-04-24T22:03:43.334Z,10.24
2023-04-24T22:06:28.554Z,10.26
2023-04-24T22:09:13.655Z,10.30
2023-04-24T22:11:59.196Z,10.26
2023-04-24T22:14:44.248Z,10.21
2023-04-24T22:17:29.630Z,10.16
2023-04-24T22:20:17.077Z,10.14
2023-04-24T22:23:02.190Z,10.05
2023-04-24T22:25:47.609Z,9.99
2023-04-24T22:28:33.007Z,9.92
2023-04-24T22:31:18.542Z,9.95
2023-04-24T22:34:03.818Z,9.88
2023-04-24T22:36:48.912Z,9.86
2023-04-24T22:39:34.157Z,9.84
2023-04-24T22:42:19.560Z,9.79
2023-04-24T22:45:05.798Z,9.81
2023-04-24T22:47:51.529Z,9.76
2023-04-24T22:50:37.036Z,9.69
2023-04-24T22:53:23.077Z,9.75
2023-04-24T22:56:08.436Z,9.83
2023-04-24T22:58:53.917Z,9.93
2023-04-24T23:01:38.895Z,10.00
2023-04-24T23:04:24.697Z,10.04
2023-04-24T23:07:10.345Z,10.06
2023-04-24T23:09:55.781Z,10.07
2023-04-24T23:12:41.050Z,10.08
2023-04-24T23:15:26.056Z,10.12
2023-04-24T23:18:12.350Z,10.12
2023-04-24T23:20:58.282Z,10.10
2023-04-24T23:23:43.498Z,10.07
2023-04-24T23:26:28.816Z,10.08
2023-04-24T23:29:13.905Z,10.07
2023-04-24T23:32:01.149Z,10.03
2023-04-24T23:34:46.170Z,10.03
2023-04-24T23:37:31.533Z,10.02
2023-04-24T23:40:17.063Z,9.98
2023-04-24T23:43:07.450Z,9.94
2023-04-24T23:45:53.345Z,9.92
2023-04-24T23:48:38.440Z,9.80
2023-04-24T23:51:23.863Z,9.77
2023-04-24T23:54:09.378Z,9.75
2023-04-24T23:56:54.693Z,9.74
2023-04-24T23:59:40.007Z,9.78
